KRSW/RSW METAR and TAF weather

Enter ICAO airport designator
Station Type Date Time Source
KRSW METAR 2020/01/18 15:53 UTC NOAA

KRSW 181553Z 12013G22KT 10SM -RA CLR 24/14 A3031 RMK AO2 RAB02E27B51 SLP263 P0000 T02390139


Station Type Date Time Source
KRSW Decoded METAR 2020/01/18 15:53 UTC NOAA

FORT MYERS SW FL INTERNATIONAL AIRPORT , FL, United States (KRSW) 26-32N 081-46W 9M
Jan 18, 2020 - 10:53 AM EST / 2020.01.18 1553 UTC
Wind: from the ESE (120 degrees) at 15 MPH (13 KT) gusting to 25 MPH (22 KT):0
Visibility: 10 mile(s):0
Sky conditions: clear
Weather: light rain
Precipitation last hour: A trace
Temperature: 75.0 F (23.9 C)
Dew Point: 57.0 F (13.9 C)
Relative Humidity: 53%
Pressure (altimeter): 30.31 in. Hg (1026 hPa)
ob: KRSW 181553Z 12013G22KT 10SM -RA CLR 24/14 A3031 RMK AO2 RAB02E27B51 SLP263 P0000 T02390139
cycle: 16

Station Type Date Time Source
KRSW TAF 2020/01/18 12:40 UTC NOAA

TAF KRSW 181138Z 1812/1912 09011KT P6SM SCT035 SCT100
FM181500 12013G18KT P6SM SCT040 SCT250
FM181900 13009KT P6SM SCT040 SCT250
FM190000 13005KT P6SM FEW030 SCT250

Example: see airport list